Wind From: 13-12-2017 10:08 Until: 14-12-2017 06:00 warning for: Wind Level: Yellow info button

Although rather usual in this region, locally or potentially dangerous phenomena are expected. (such as local winds, summer thunderstorms, rising streams or high waves) Be aware and pay attention to the latest weather updates, especially if you carry out activities exposed to weather or close to a stream or shoreline. 


Meteo18 Weather Cam more information Meteo18 Weather Cam


Thunder radar more information blitzortung!


Rain radar more information rain snow radar


Visit our other weather sites:

Template documentation
and downloads

And another site



Weather Underground History page Text

Daily Summary for February 2, 2016 Units:  Metric    English   Both
« Previous Day
Next Day »
Daily Weekly Monthly Yearly Custom
  High: Low: Average:
Temperature: 11.8 °C 7.5 °C 9.8 °C
Dew Point: 9.8 °C 7.1 °C 8.6 °C
Humidity: 97 % 77 % 92 %
Wind Speed: 12.9 km/h 0.0 km/h 4 km/h
Wind Gust: 27.4 km/h - -
Wind:- - SW
Pressure: 1028.0 hPa 1021.9 hPa -
Precipitation: 3.6 mm    
Historical Graphs
 
 
Tabular Data for February 2, 2016
Time Temperature Dew Point Pressure Wind Wind Speed Wind Gust Humidity Rainfall Rate (Hourly)
00:02 9.9 °C 9.3 °C 1027.7 hPa West 1.6 km/h 9.7 km/h 96 % 0.3 mm
00:07 9.9 °C 9.3 °C 1027.7 hPa WSW 1.6 km/h 11.3 km/h 96 % 0.3 mm
00:17 9.9 °C 9.3 °C 1028.0 hPa Calm   11.3 km/h 96 % 0.3 mm
00:27 9.9 °C 9.1 °C 1028.0 hPa Calm   6.4 km/h 95 % 0.0 mm
00:32 9.9 °C 9.1 °C 1028.0 hPa SW 1.6 km/h 6.4 km/h 95 % 0.0 mm
00:42 9.9 °C 9.1 °C 1027.7 hPa SW 3.2 km/h 8.0 km/h 95 % 0.0 mm
00:47 9.8 °C 9.0 °C 1027.7 hPa SW 3.2 km/h 8.0 km/h 95 % 0.0 mm
00:57 9.8 °C 9.0 °C 1028.0 hPa SW 1.6 km/h 9.7 km/h 95 % 0.0 mm
01:07 9.8 °C 9.0 °C 1027.7 hPa SW 4.8 km/h 9.7 km/h 95 % 0.0 mm
01:17 9.7 °C 8.9 °C 1027.7 hPa WSW 6.4 km/h 8.0 km/h 95 % 0.0 mm
01:22 9.7 °C 8.9 °C 1027.7 hPa SW 3.2 km/h 9.7 km/h 95 % 0.0 mm
01:27 9.7 °C 8.9 °C 1027.7 hPa WSW 3.2 km/h 9.7 km/h 95 % 0.0 mm
01:37 9.7 °C 8.9 °C 1027.7 hPa SSW 3.2 km/h 9.7 km/h 95 % 0.0 mm
01:47 9.7 °C 8.9 °C 1027.7 hPa SW 4.8 km/h 9.7 km/h 95 % 0.0 mm
01:52 9.7 °C 8.9 °C 1027.7 hPa SW 1.6 km/h 9.7 km/h 95 % 0.0 mm
02:02 9.6 °C 8.8 °C 1027.3 hPa WSW 4.8 km/h 9.7 km/h 95 % 0.0 mm
02:07 9.6 °C 8.8 °C 1027.3 hPa WSW 3.2 km/h 8.0 km/h 95 % 0.0 mm
02:12 9.6 °C 9.0 °C 1027.3 hPa SW 3.2 km/h 8.0 km/h 96 % 0.0 mm
02:22 9.6 °C 9.0 °C 1027.3 hPa SW 4.8 km/h 6.4 km/h 96 % 0.0 mm
02:32 9.6 °C 9.0 °C 1027.3 hPa WSW 3.2 km/h 8.0 km/h 96 % 0.0 mm
02:37 9.6 °C 9.0 °C 1027.3 hPa SW 4.8 km/h 8.0 km/h 96 % 0.0 mm
02:47 9.5 °C 8.9 °C 1027.0 hPa WSW 1.6 km/h 6.4 km/h 96 % 0.0 mm
02:57 9.4 °C 8.8 °C 1027.0 hPa Calm   6.4 km/h 96 % 0.0 mm
03:02 9.3 °C 8.7 °C 1027.0 hPa WSW 1.6 km/h 4.8 km/h 96 % 0.0 mm
03:07 9.3 °C 8.8 °C 1027.0 hPa WSW 3.2 km/h 4.8 km/h 97 % 0.0 mm
03:12 9.3 °C 8.8 °C 1027.0 hPa SSW 1.6 km/h 4.8 km/h 97 % 0.0 mm
03:17 9.3 °C 8.8 °C 1027.0 hPa SW 3.2 km/h 6.4 km/h 97 % 0.0 mm
03:32 9.3 °C 8.8 °C 1026.6 hPa SW 6.4 km/h 6.4 km/h 97 % 0.0 mm
03:42 9.3 °C 8.8 °C 1026.6 hPa WSW 3.2 km/h 8.0 km/h 97 % 0.0 mm
03:52 9.2 °C 8.7 °C 1026.6 hPa WSW 1.6 km/h 8.0 km/h 97 % 0.0 mm
04:02 9.2 °C 8.7 °C 1026.6 hPa SW 3.2 km/h 8.0 km/h 97 % 0.0 mm
04:07 9.2 °C 8.7 °C 1026.6 hPa SW 3.2 km/h 8.0 km/h 97 % 0.0 mm
04:17 9.2 °C 8.7 °C 1026.3 hPa WSW 3.2 km/h 9.7 km/h 97 % 0.3 mm
04:22 9.2 °C 8.7 °C 1026.3 hPa SW 3.2 km/h 9.7 km/h 97 % 0.3 mm
04:32 9.2 °C 8.7 °C 1026.3 hPa WSW 1.6 km/h 9.7 km/h 97 % 0.3 mm
04:37 9.2 °C 8.7 °C 1026.0 hPa SW 1.6 km/h 8.0 km/h 97 % 0.3 mm
04:42 9.2 °C 8.7 °C 1026.0 hPa SW 3.2 km/h 8.0 km/h 97 % 0.3 mm
04:52 9.2 °C 8.7 °C 1026.0 hPa SSE 1.6 km/h 6.4 km/h 97 % 0.3 mm
05:02 9.2 °C 8.7 °C 1026.0 hPa WSW 3.2 km/h 8.0 km/h 97 % 0.3 mm
05:12 9.2 °C 8.7 °C 1026.0 hPa SW 3.2 km/h 6.4 km/h 97 % 0.3 mm
05:32 9.2 °C 8.7 °C 1025.6 hPa SW 3.2 km/h 11.3 km/h 97 % 0.3 mm
05:42 9.2 °C 8.7 °C 1025.6 hPa WSW 3.2 km/h 9.7 km/h 97 % 0.3 mm
05:47 9.2 °C 8.7 °C 1025.6 hPa SW 4.8 km/h 9.7 km/h 97 % 0.3 mm
05:57 9.2 °C 8.7 °C 1025.6 hPa WSW 6.4 km/h 11.3 km/h 97 % 0.3 mm
06:02 9.2 °C 8.7 °C 1025.6 hPa SW 6.4 km/h 11.3 km/h 97 % 0.3 mm
06:07 9.2 °C 8.7 °C 1025.3 hPa SW 1.6 km/h 9.7 km/h 97 % 0.3 mm
06:12 9.2 °C 8.7 °C 1025.6 hPa SSW 1.6 km/h 9.7 km/h 97 % 0.3 mm
06:22 9.2 °C 8.7 °C 1025.6 hPa SW 3.2 km/h 8.0 km/h 97 % 0.0 mm
06:27 9.2 °C 8.7 °C 1025.3 hPa Calm   8.0 km/h 97 % 0.0 mm
06:37 9.2 °C 8.7 °C 1025.3 hPa Calm   8.0 km/h 97 % 0.0 mm
06:42 9.2 °C 8.7 °C 1025.3 hPa West 1.6 km/h 11.3 km/h 97 % 0.0 mm
06:52 9.3 °C 8.8 °C 1025.3 hPa Calm   11.3 km/h 97 % 0.0 mm
06:57 9.3 °C 8.8 °C 1025.6 hPa WNW 1.6 km/h 9.7 km/h 97 % 0.0 mm
07:02 9.3 °C 8.8 °C 1025.3 hPa SW 3.2 km/h 9.7 km/h 97 % 0.0 mm
07:07 9.3 °C 8.8 °C 1025.3 hPa WSW 3.2 km/h 9.7 km/h 97 % 0.0 mm
07:17 9.3 °C 8.8 °C 1025.3 hPa East 1.6 km/h 9.7 km/h 97 % 0.0 mm
07:27 9.3 °C 8.8 °C 1025.3 hPa Calm   9.7 km/h 97 % 0.0 mm
07:32 9.3 °C 8.8 °C 1025.3 hPa WSW 1.6 km/h 11.3 km/h 97 % 0.0 mm
07:37 9.3 °C 8.8 °C 1025.3 hPa SSW 1.6 km/h 11.3 km/h 97 % 0.0 mm
07:47 9.3 °C 8.8 °C 1025.3 hPa ESE 3.2 km/h 6.4 km/h 97 % 0.0 mm
07:57 9.3 °C 8.7 °C 1025.3 hPa SW 1.6 km/h 6.4 km/h 96 % 0.0 mm
08:02 9.2 °C 8.6 °C 1025.3 hPa SW 1.6 km/h 8.0 km/h 96 % 0.0 mm
08:12 9.2 °C 8.6 °C 1025.3 hPa SE 1.6 km/h 8.0 km/h 96 % 0.0 mm
08:17 9.2 °C 8.6 °C 1025.3 hPa Calm   8.0 km/h 96 % 0.0 mm
08:22 9.2 °C 8.6 °C 1025.3 hPa Calm   8.0 km/h 96 % 0.0 mm
08:32 9.2 °C 8.7 °C 1025.3 hPa SW 3.2 km/h 6.4 km/h 97 % 0.0 mm
08:37 9.2 °C 8.7 °C 1025.3 hPa WSW 1.6 km/h 6.4 km/h 97 % 0.0 mm
08:42 9.2 °C 8.7 °C 1025.3 hPa WSW 6.4 km/h 6.4 km/h 97 % 0.0 mm
08:52 9.3 °C 8.7 °C 1025.3 hPa WSW 8.0 km/h 9.7 km/h 96 % 0.0 mm
08:57 9.3 °C 8.7 °C 1024.9 hPa SW 4.8 km/h 9.7 km/h 96 % 0.0 mm
09:07 9.3 °C 8.7 °C 1024.9 hPa SW 4.8 km/h 11.3 km/h 96 % 0.0 mm
09:12 9.3 °C 8.7 °C 1024.9 hPa SW 1.6 km/h 9.7 km/h 96 % 0.0 mm
09:17 9.3 °C 8.7 °C 1024.9 hPa South 1.6 km/h 9.7 km/h 96 % 0.0 mm
09:22 9.3 °C 8.7 °C 1024.9 hPa SW 3.2 km/h 9.7 km/h 96 % 0.0 mm
09:32 9.3 °C 8.8 °C 1024.6 hPa SW 1.6 km/h 12.9 km/h 97 % 0.0 mm
09:42 9.4 °C 8.8 °C 1024.9 hPa SW 1.6 km/h 9.7 km/h 96 % 0.0 mm
09:47 9.4 °C 8.8 °C 1024.9 hPa WSW 1.6 km/h 9.7 km/h 96 % 0.0 mm
09:52 9.4 °C 8.8 °C 1024.9 hPa SW 6.4 km/h 9.7 km/h 96 % 0.0 mm
10:02 9.4 °C 8.8 °C 1024.9 hPa SW 8.0 km/h 9.7 km/h 96 % 0.0 mm
10:12 9.4 °C 8.8 °C 1024.9 hPa SW 11.3 km/h 12.9 km/h 96 % 0.0 mm
10:22 9.5 °C 8.9 °C 1024.9 hPa WSW 4.8 km/h 16.1 km/h 96 % 0.0 mm
10:27 9.5 °C 8.9 °C 1024.9 hPa SW 4.8 km/h 12.9 km/h 96 % 0.0 mm
10:37 9.6 °C 8.8 °C 1024.9 hPa Calm   14.5 km/h 95 % 0.0 mm
10:42 9.7 °C 8.9 °C 1024.9 hPa SW 6.4 km/h 14.5 km/h 95 % 0.0 mm
10:52 9.7 °C 8.9 °C 1024.9 hPa WSW 1.6 km/h 14.5 km/h 95 % 0.0 mm
11:02 9.8 °C 9.0 °C 1024.9 hPa South 4.8 km/h 11.3 km/h 95 % 0.0 mm
11:07 9.8 °C 9.0 °C 1024.9 hPa WSW 4.8 km/h 12.9 km/h 95 % 0.0 mm
11:17 9.9 °C 9.1 °C 1024.9 hPa SW 9.7 km/h 12.9 km/h 95 % 0.0 mm
11:27 10.0 °C 9.1 °C 1024.6 hPa SSW 3.2 km/h 12.9 km/h 94 % 0.0 mm
11:32 10.0 °C 9.1 °C 1024.6 hPa SW 4.8 km/h 12.9 km/h 94 % 0.0 mm
11:37 10.1 °C 9.2 °C 1024.6 hPa SW 8.0 km/h 11.3 km/h 94 % 0.0 mm
11:42 10.1 °C 9.0 °C 1024.6 hPa SW 4.8 km/h 16.1 km/h 93 % 0.0 mm
11:52 10.3 °C 9.2 °C 1024.6 hPa West 12.9 km/h 12.9 km/h 93 % 0.0 mm
11:57 10.4 °C 9.2 °C 1024.3 hPa WSW 3.2 km/h 19.3 km/h 92 % 0.0 mm
12:07 11.0 °C 9.8 °C 1023.9 hPa WSW 8.0 km/h 19.3 km/h 92 % 0.0 mm
12:17 11.0 °C 9.4 °C 1023.9 hPa WSW 9.7 km/h 16.1 km/h 90 % 0.0 mm
12:27 11.2 °C 9.5 °C 1023.9 hPa West 8.0 km/h 16.1 km/h 89 % 0.0 mm
12:32 11.2 °C 9.3 °C 1023.9 hPa SW 9.7 km/h 16.1 km/h 88 % 0.0 mm
12:37 11.2 °C 9.1 °C 1023.9 hPa SW 11.3 km/h 16.1 km/h 87 % 0.0 mm
12:42 11.3 °C 9.4 °C 1023.9 hPa South 1.6 km/h 17.7 km/h 88 % 0.0 mm
12:52 11.2 °C 8.9 °C 1023.9 hPa SSW 8.0 km/h 17.7 km/h 86 % 0.0 mm
12:57 11.2 °C 8.9 °C 1023.9 hPa SW 4.8 km/h 16.1 km/h 86 % 0.0 mm
13:07 11.3 °C 8.9 °C 1023.6 hPa SW 3.2 km/h 17.7 km/h 85 % 0.0 mm
13:21 11.4 °C 9.1 °C 1023.6 hPa SW 4.8 km/h 16.1 km/h 86 % 0.0 mm
13:27 11.4 °C 9.0 °C 1023.6 hPa SSW 3.2 km/h 12.9 km/h 85 % 0.0 mm
13:32 11.4 °C 8.8 °C 1023.6 hPa WSW 11.3 km/h 12.9 km/h 84 % 0.0 mm
13:42 11.5 °C 8.9 °C 1023.2 hPa SW 1.6 km/h 14.5 km/h 84 % 0.0 mm
13:47 11.4 °C 8.3 °C 1023.2 hPa WSW 6.4 km/h 14.5 km/h 81 % 0.0 mm
13:57 11.4 °C 8.1 °C 1023.2 hPa SSW 9.7 km/h 20.9 km/h 80 % 0.0 mm
14:07 11.7 °C 8.2 °C 1022.9 hPa WSW 1.6 km/h 27.4 km/h 79 % 0.0 mm
14:12 11.8 °C 8.1 °C 1022.6 hPa SW 6.4 km/h 27.4 km/h 78 % 0.0 mm
14:17 11.8 °C 7.9 °C 1022.6 hPa West 4.8 km/h 25.7 km/h 77 % 0.0 mm
14:22 11.8 °C 8.1 °C 1022.6 hPa SSW 8.0 km/h 25.7 km/h 78 % 0.0 mm
14:32 11.8 °C 8.5 °C 1022.6 hPa SW 9.7 km/h 19.3 km/h 80 % 0.0 mm
14:37 11.8 °C 8.5 °C 1022.6 hPa SW 4.8 km/h 19.3 km/h 80 % 0.0 mm
14:47 11.5 °C 8.4 °C 1022.2 hPa SW 6.4 km/h 16.1 km/h 81 % 0.0 mm
14:52 11.5 °C 8.4 °C 1022.2 hPa WSW 11.3 km/h 17.7 km/h 81 % 0.0 mm
15:02 11.4 °C 8.4 °C 1022.2 hPa SW 4.8 km/h 22.5 km/h 82 % 0.0 mm
15:07 11.4 °C 8.4 °C 1022.2 hPa WSW 3.2 km/h 22.5 km/h 82 % 0.0 mm
15:12 11.4 °C 8.4 °C 1022.2 hPa SW 3.2 km/h 14.5 km/h 82 % 0.0 mm
15:22 11.3 °C 8.5 °C 1022.2 hPa SW 8.0 km/h 16.1 km/h 83 % 0.0 mm
15:27 11.2 °C 8.4 °C 1022.2 hPa Calm   19.3 km/h 83 % 0.0 mm
15:32 11.2 °C 8.4 °C 1022.2 hPa SSW 3.2 km/h 19.3 km/h 83 % 0.0 mm
15:42 11.2 °C 8.6 °C 1022.2 hPa WSW 6.4 km/h 19.3 km/h 84 % 0.0 mm
15:49 11.0 °C 8.6 °C 1022.6 hPa WSW 12.9 km/h 19.3 km/h 85 % 0.0 mm
15:57 10.9 °C 8.6 °C 1022.6 hPa SSW 3.2 km/h 19.3 km/h 86 % 0.0 mm
16:02 11.0 °C 8.6 °C 1022.6 hPa SW 3.2 km/h 19.3 km/h 85 % 0.0 mm
16:12 11.0 °C 8.6 °C 1022.6 hPa WSW 4.8 km/h 12.9 km/h 85 % 0.0 mm
16:17 11.0 °C 8.7 °C 1022.6 hPa SW 4.8 km/h 16.1 km/h 86 % 0.0 mm
16:27 10.9 °C 8.6 °C 1022.6 hPa WSW 6.4 km/h 16.1 km/h 86 % 0.0 mm
16:37 10.9 °C 8.6 °C 1022.6 hPa SW 4.8 km/h 12.9 km/h 86 % 0.0 mm
16:42 10.9 °C 8.6 °C 1022.6 hPa SW 1.6 km/h 11.3 km/h 86 % 0.0 mm
16:47 10.8 °C 8.6 °C 1022.6 hPa SSW 6.4 km/h 12.9 km/h 86 % 0.0 mm
16:57 10.8 °C 8.7 °C 1022.2 hPa SW 8.0 km/h 16.1 km/h 87 % 0.0 mm
17:02 10.7 °C 8.6 °C 1022.2 hPa SW 6.4 km/h 16.1 km/h 87 % 0.0 mm
17:07 10.8 °C 8.6 °C 1022.2 hPa SW 8.0 km/h 16.1 km/h 86 % 0.0 mm
17:12 10.8 °C 8.4 °C 1022.6 hPa WSW 6.4 km/h 17.7 km/h 85 % 0.0 mm
17:22 10.7 °C 8.5 °C 1022.6 hPa SW 11.3 km/h 17.7 km/h 86 % 0.0 mm
17:32 10.7 °C 8.5 °C 1022.2 hPa WSW 3.2 km/h 14.5 km/h 86 % 0.0 mm
17:42 10.6 °C 8.4 °C 1022.6 hPa SW 6.4 km/h 12.9 km/h 86 % 0.0 mm
17:52 10.6 °C 8.4 °C 1022.2 hPa SW 12.9 km/h 16.1 km/h 86 % 0.0 mm
17:57 10.5 °C 8.4 °C 1022.2 hPa SW 8.0 km/h 16.1 km/h 87 % 0.0 mm
18:02 10.4 °C 8.3 °C 1022.2 hPa SW 8.0 km/h 16.1 km/h 87 % 0.0 mm
18:12 10.3 °C 8.2 °C 1022.2 hPa SSW 8.0 km/h 17.7 km/h 87 % 0.0 mm
18:17 10.2 °C 8.3 °C 1021.9 hPa SW 3.2 km/h 17.7 km/h 88 % 0.0 mm
18:22 10.1 °C 8.2 °C 1022.2 hPa South 6.4 km/h 17.7 km/h 88 % 0.0 mm
18:27 10.0 °C 8.3 °C 1022.2 hPa SW 4.8 km/h 11.3 km/h 89 % 0.0 mm
18:32 9.9 °C 8.2 °C 1022.2 hPa SW 3.2 km/h 11.3 km/h 89 % 0.0 mm
18:37 9.9 °C 8.3 °C 1022.2 hPa SSW 1.6 km/h 11.3 km/h 90 % 0.0 mm
18:47 9.7 °C 8.1 °C 1022.2 hPa SSW 4.8 km/h 11.3 km/h 90 % 0.0 mm
18:57 9.6 °C 8.0 °C 1022.2 hPa SW 9.7 km/h 12.9 km/h 90 % 0.0 mm
19:02 9.5 °C 8.1 °C 1022.2 hPa SW 9.7 km/h 12.9 km/h 91 % 0.0 mm
19:12 9.6 °C 8.2 °C 1022.2 hPa SW 1.6 km/h 12.9 km/h 91 % 0.0 mm
19:17 9.7 °C 8.1 °C 1022.2 hPa WSW 6.4 km/h 11.3 km/h 90 % 0.0 mm
19:22 9.7 °C 8.1 °C 1022.2 hPa WSW 4.8 km/h 12.9 km/h 90 % 0.0 mm
19:27 9.8 °C 8.2 °C 1022.2 hPa SW 8.0 km/h 12.9 km/h 90 % 0.0 mm
19:37 9.9 °C 8.2 °C 1022.2 hPa ESE 3.2 km/h 12.9 km/h 89 % 0.0 mm
19:42 9.9 °C 8.2 °C 1022.2 hPa SW 1.6 km/h 12.9 km/h 89 % 0.0 mm
19:52 9.9 °C 8.2 °C 1022.2 hPa WSW 4.8 km/h 12.9 km/h 89 % 0.0 mm
19:57 9.9 °C 8.2 °C 1022.2 hPa WSW 4.8 km/h 11.3 km/h 89 % 0.0 mm
20:02 9.9 °C 8.2 °C 1022.2 hPa WSW 3.2 km/h 12.9 km/h 89 % 0.0 mm
20:17 10.0 °C 8.3 °C 1022.2 hPa WSW 4.8 km/h 14.5 km/h 89 % 0.0 mm
20:22 9.9 °C 8.2 °C 1022.2 hPa SW 6.4 km/h 12.9 km/h 89 % 0.0 mm
20:29 9.8 °C 8.2 °C 1022.2 hPa SW 6.4 km/h 12.9 km/h 90 % 0.0 mm
20:37 9.7 °C 8.5 °C 1022.6 hPa West 4.8 km/h 12.9 km/h 92 % 0.0 mm
20:47 9.6 °C 8.5 °C 1022.6 hPa SW 6.4 km/h 17.7 km/h 93 % 0.3 mm
20:52 9.5 °C 8.4 °C 1022.6 hPa SW 1.6 km/h 12.9 km/h 93 % 0.3 mm
20:57 9.5 °C 8.4 °C 1022.9 hPa WSW 3.2 km/h 12.9 km/h 93 % 0.3 mm
21:07 9.5 °C 8.6 °C 1022.9 hPa Calm   17.7 km/h 94 % 0.3 mm
21:12 9.5 °C 8.6 °C 1022.9 hPa Calm   17.7 km/h 94 % 0.3 mm
21:24 9.4 °C 8.6 °C 1022.9 hPa SSW 3.2 km/h 12.9 km/h 95 % 0.5 mm
21:32 9.3 °C 8.5 °C 1022.9 hPa SW 1.6 km/h 8.0 km/h 95 % 0.8 mm
21:37 9.3 °C 8.7 °C 1022.9 hPa SSE 1.6 km/h 8.0 km/h 96 % 0.8 mm
21:42 9.1 °C 8.2 °C 1023.2 hPa NE 3.2 km/h 6.4 km/h 94 % 0.8 mm
21:52 8.5 °C 7.7 °C 1023.2 hPa North 1.6 km/h 9.7 km/h 95 % 1.0 mm
21:57 8.4 °C 7.8 °C 1023.2 hPa Calm   9.7 km/h 96 % 1.3 mm
22:02 8.3 °C 7.7 °C 1023.2 hPa East 4.8 km/h 8.0 km/h 96 % 1.3 mm
22:07 8.2 °C 7.6 °C 1023.2 hPa ESE 1.6 km/h 6.4 km/h 96 % 1.3 mm
22:17 8.0 °C 7.4 °C 1023.2 hPa NE 1.6 km/h 8.0 km/h 96 % 1.3 mm
22:22 7.9 °C 7.3 °C 1023.2 hPa NE 3.2 km/h 8.0 km/h 96 % 1.0 mm
22:32 7.9 °C 7.3 °C 1023.2 hPa NNE 1.6 km/h 6.4 km/h 96 % 0.8 mm
22:42 7.8 °C 7.2 °C 1023.2 hPa Calm   4.8 km/h 96 % 0.8 mm
22:47 7.8 °C 7.2 °C 1022.9 hPa Calm   3.2 km/h 96 % 0.5 mm
22:54 7.8 °C 7.4 °C 1022.9 hPa Calm   3.2 km/h 97 % 0.5 mm
23:02 7.8 °C 7.4 °C 1022.9 hPa Calm   3.2 km/h 97 % 0.5 mm
23:12 7.7 °C 7.3 °C 1022.9 hPa Calm   3.2 km/h 97 % 0.5 mm
23:17 7.7 °C 7.3 °C 1022.9 hPa Calm   3.2 km/h 97 % 0.5 mm
23:22 7.7 °C 7.3 °C 1022.9 hPa Calm   3.2 km/h 97 % 0.5 mm
23:27 7.7 °C 7.3 °C 1022.9 hPa NE 1.6 km/h 1.6 km/h 97 % 0.5 mm
23:32 7.7 °C 7.3 °C 1023.2 hPa Calm   3.2 km/h 97 % 0.5 mm
23:42 7.7 °C 7.3 °C 1023.2 hPa Calm   3.2 km/h 97 % 0.8 mm
23:47 7.6 °C 7.2 °C 1022.9 hPa Calm   1.6 km/h 97 % 1.0 mm
23:57 7.5 °C 7.1 °C 1022.9 hPa Calm   1.6 km/h 97 % 1.3 mm
Meteo18
Compliments of Weather Underground - 4 mb

Script developed by  Jim McMurry - jmcmurry@mwt.net Adapted for the template by  Wim van der Kuil - Leuven-Template.eu

You find our weather info also at:

European Weather Network

Weather Underground

Equipment we use:

Weather-station
Davis Vue

Weather-program
Meteohub

Weather-server
Raspberry PI 2 B+

Provider
1 and 1

Davis Vue

Meteohub

Raspberry PI 2 B+

1 and 1